Tim S. Dool — VGPY — position and weather

sailwx.info

Track history (hours):
 
Tides and Currents Weather Stations Pressure Air Temp Water Temp Dewpoint Dewpoint Depression Visibility Wind Speed Wind Dir Waves Ship Positions

Tim S. Dool

Last reported at 2015-Aug-25 17:27 UTC. Time now 2015-Aug-28 17:11 UTC.
Position N 43°22' W 079°32'.

Length 223 m; draft 7.9 m.

Type: Cargo ship. MMSI: 316001696.

Date/timePositionNaut miles runAvg speedWind from/ knotsBaromVisibWave heightAir tempDewpointWater temp
2015-Aug-25 17:27N 43°22' W 079°32'1112.1
2015-Aug-25 16:33N 43°25' W 079°17'243 9.0
2015-Aug-24 13:31N 45°14' W 074°14'8 8.2
2015-Aug-24 12:33N 45°13' W 074°02'7 6.9
2015-Aug-24 11:34N 45°18' W 073°56'1 0.8
2015-Aug-24 10:34N 45°19' W 073°55'1 1.2
2015-Aug-24 09:33N 45°20' W 073°54'3 2.7
2015-Aug-24 08:33N 45°21' W 073°51'4 3.7
2015-Aug-24 07:33N 45°24' W 073°47'6 5.6
2015-Aug-24 06:33N 45°24' W 073°39'4 3.7
2015-Aug-24 05:30N 45°24' W 073°34'2 2.3
2015-Aug-24 04:34N 45°25' W 073°31'42 3.4
2015-Aug-23 16:15N 46°04' W 073°06'6 9.3
2015-Aug-23 15:34N 46°07' W 072°58'9 9.2
2015-Aug-23 14:33N 46°13' W 072°48'10 9.8
2015-Aug-23 13:33N 46°17' W 072°36'10 9.1
2015-Aug-23 12:25N 46°24' W 072°24'9 8.7
2015-Aug-23 11:25N 46°29' W 072°14'  
2015-Aug-17 18:29N 46°36' W 071°60'1212.9
2015-Aug-17 17:33N 46°29' W 072°14'1211.9
2015-Aug-17 16:34N 46°22' W 072°29'1111.3
2015-Aug-17 15:34N 46°16' W 072°42'1312.8
2015-Aug-17 14:34N 46°09' W 072°57'46 9.2
2015-Aug-17 09:31N 45°29' W 073°31'4 4.2
2015-Aug-17 08:34N 45°25' W 073°31'2 2.2
2015-Aug-17 07:34N 45°24' W 073°34'3 2.6
2015-Aug-17 06:33N 45°24' W 073°38'5 5.1
2015-Aug-17 05:33N 45°24' W 073°45'7 7.4
2015-Aug-17 04:33N 45°20' W 073°54'2 1.9
2015-Aug-17 03:33N 45°19' W 073°55'1 0.6
2015-Aug-17 02:34N 45°18' W 073°56'5 4.1
2015-Aug-17 01:26N 45°14' W 073°59'110 7.8
2015-Aug-16 11:17N 44°14' W 076°09'811.0
2015-Aug-16 10:33N 44°10' W 076°19'10012.2
2015-Aug-16 02:25N 43°29' W 078°25'1112.7
2015-Aug-16 01:33N 43°25' W 078°39'1313.0
2015-Aug-16 00:33N 43°22' W 078°56'1212.5
2015-Aug-15 23:33N 43°16' W 079°12'3 3.2
2015-Aug-15 22:33N 43°13' W 079°13'2 1.5
2015-Aug-15 21:33N 43°12' W 079°12'2 1.7
2015-Aug-15 20:33N 43°10' W 079°12'1 0.8
2015-Aug-15 19:33N 43°09' W 079°12'1 0.9
2015-Aug-15 18:33N 43°08' W 079°12'0 0.0
2015-Aug-15 17:33N 43°08' W 079°12'  
Track history (hours):
 
Tides and Currents Weather Stations Pressure Air Temp Water Temp Dewpoint Dewpoint Depression Visibility Wind Speed Wind Dir Waves Ship Positions

Tim S. Dool

Last reported at 2015-Aug-25 17:27 UTC. Time now 2015-Aug-28 17:11 UTC.
Position N 43°22' W 079°32'.

Length 223 m; draft 7.9 m.

Type: Cargo ship. MMSI: 316001696.

Date/timePositionNaut miles runAvg speedWind from/ knotsBaromVisibWave heightAir tempDewpointWater temp
2015-Aug-25 17:27N 43°22' W 079°32'1112.1
2015-Aug-25 16:33N 43°25' W 079°17'243 9.0
2015-Aug-24 13:31N 45°14' W 074°14'8 8.2
2015-Aug-24 12:33N 45°13' W 074°02'7 6.9
2015-Aug-24 11:34N 45°18' W 073°56'1 0.8
2015-Aug-24 10:34N 45°19' W 073°55'1 1.2
2015-Aug-24 09:33N 45°20' W 073°54'3 2.7
2015-Aug-24 08:33N 45°21' W 073°51'4 3.7
2015-Aug-24 07:33N 45°24' W 073°47'6 5.6
2015-Aug-24 06:33N 45°24' W 073°39'4 3.7
2015-Aug-24 05:30N 45°24' W 073°34'2 2.3
2015-Aug-24 04:34N 45°25' W 073°31'42 3.4
2015-Aug-23 16:15N 46°04' W 073°06'6 9.3
2015-Aug-23 15:34N 46°07' W 072°58'9 9.2
2015-Aug-23 14:33N 46°13' W 072°48'10 9.8
2015-Aug-23 13:33N 46°17' W 072°36'10 9.1
2015-Aug-23 12:25N 46°24' W 072°24'9 8.7
2015-Aug-23 11:25N 46°29' W 072°14'  
2015-Aug-17 18:29N 46°36' W 071°60'1212.9
2015-Aug-17 17:33N 46°29' W 072°14'1211.9
2015-Aug-17 16:34N 46°22' W 072°29'1111.3
2015-Aug-17 15:34N 46°16' W 072°42'1312.8
2015-Aug-17 14:34N 46°09' W 072°57'46 9.2
2015-Aug-17 09:31N 45°29' W 073°31'4 4.2
2015-Aug-17 08:34N 45°25' W 073°31'2 2.2
2015-Aug-17 07:34N 45°24' W 073°34'3 2.6
2015-Aug-17 06:33N 45°24' W 073°38'5 5.1
2015-Aug-17 05:33N 45°24' W 073°45'7 7.4
2015-Aug-17 04:33N 45°20' W 073°54'2 1.9
2015-Aug-17 03:33N 45°19' W 073°55'1 0.6
2015-Aug-17 02:34N 45°18' W 073°56'5 4.1
2015-Aug-17 01:26N 45°14' W 073°59'110 7.8
2015-Aug-16 11:17N 44°14' W 076°09'811.0
2015-Aug-16 10:33N 44°10' W 076°19'10012.2
2015-Aug-16 02:25N 43°29' W 078°25'1112.7
2015-Aug-16 01:33N 43°25' W 078°39'1313.0
2015-Aug-16 00:33N 43°22' W 078°56'1212.5
2015-Aug-15 23:33N 43°16' W 079°12'3 3.2
2015-Aug-15 22:33N 43°13' W 079°13'2 1.5
2015-Aug-15 21:33N 43°12' W 079°12'2 1.7
2015-Aug-15 20:33N 43°10' W 079°12'1 0.8
2015-Aug-15 19:33N 43°09' W 079°12'1 0.9
2015-Aug-15 18:33N 43°08' W 079°12'0 0.0
2015-Aug-15 17:33N 43°08' W 079°12'  

Dump ship's entire track history